createdAt,value
2023-01-13T00:00:29.850Z,73.92
2023-01-13T00:01:51.703Z,73.97
2023-01-13T00:02:53.408Z,74.02
2023-01-13T00:03:57.306Z,73.99
2023-01-13T00:04:59.210Z,73.95
2023-01-13T00:06:00.903Z,73.97
2023-01-13T00:07:02.648Z,73.93
2023-01-13T00:08:05.686Z,73.94
2023-01-13T00:09:07.555Z,74.02
2023-01-13T00:10:10.559Z,73.99
2023-01-13T00:11:12.848Z,74.03
2023-01-13T00:12:14.416Z,74.02
2023-01-13T00:13:16.287Z,74.09
2023-01-13T00:14:18.130Z,74.09
2023-01-13T00:15:20.240Z,74.05
2023-01-13T00:16:22.515Z,74.10
2023-01-13T00:17:25.609Z,74.12
2023-01-13T00:18:27.874Z,74.13
2023-01-13T00:19:30.002Z,74.11
2023-01-13T00:20:31.736Z,74.19
2023-01-13T00:21:34.024Z,74.14
2023-01-13T00:22:35.925Z,74.21
2023-01-13T00:23:38.880Z,74.18
2023-01-13T00:24:40.663Z,74.21
2023-01-13T00:25:42.309Z,74.26
2023-01-13T00:26:43.967Z,74.18
2023-01-13T00:27:45.708Z,74.23
2023-01-13T00:28:48.112Z,74.25
2023-01-13T00:29:50.213Z,74.21
2023-01-13T00:30:52.182Z,74.17
2023-01-13T00:31:55.111Z,74.15
2023-01-13T00:32:56.755Z,74.17
2023-01-13T00:33:59.988Z,74.16
2023-01-13T00:35:01.785Z,74.21
2023-01-13T00:36:05.424Z,74.19
2023-01-13T00:37:07.618Z,74.27
2023-01-13T00:38:09.263Z,74.19
2023-01-13T00:39:11.162Z,74.21
2023-01-13T00:40:13.413Z,74.21
2023-01-13T00:41:19.561Z,74.25
2023-01-13T00:42:39.782Z,74.21
2023-01-13T00:43:41.925Z,74.19
2023-01-13T00:44:45.362Z,74.26
2023-01-13T00:45:47.275Z,74.19
2023-01-13T00:46:49.486Z,74.12
2023-01-13T00:47:51.448Z,74.10
2023-01-13T00:48:53.582Z,74.14
2023-01-13T00:49:55.244Z,74.10
2023-01-13T00:50:59.412Z,74.07
2023-01-13T00:52:01.303Z,74.12
2023-01-13T00:53:02.917Z,74.09
2023-01-13T00:54:05.055Z,74.13
2023-01-13T00:55:07.413Z,74.09
2023-01-13T00:56:21.822Z,74.07
2023-01-13T00:57:26.197Z,74.03
2023-01-13T00:58:30.407Z,74.07
2023-01-13T00:59:32.159Z,74.08
2023-01-13T01:00:33.976Z,74.06
2023-01-13T01:01:35.997Z,74.05
2023-01-13T01:02:37.941Z,74.05
2023-01-13T01:03:39.881Z,74.07
2023-01-13T01:04:41.630Z,74.11
2023-01-13T01:05:43.407Z,74.12
2023-01-13T01:06:45.739Z,74.12
2023-01-13T01:07:47.619Z,74.13
2023-01-13T01:08:49.952Z,74.10
2023-01-13T01:09:51.777Z,74.09
2023-01-13T01:11:00.920Z,74.12
2023-01-13T01:12:02.761Z,74.11
2023-01-13T01:13:04.520Z,74.08
2023-01-13T01:14:06.452Z,74.10
2023-01-13T01:15:09.467Z,74.12
2023-01-13T01:16:14.051Z,74.17
2023-01-13T01:17:15.927Z,74.20
2023-01-13T01:18:17.709Z,74.25
2023-01-13T01:19:20.108Z,74.21
2023-01-13T01:20:21.879Z,74.22
2023-01-13T01:21:25.362Z,74.25
2023-01-13T01:22:27.136Z,74.27
2023-01-13T01:23:30.075Z,74.32
2023-01-13T01:24:31.675Z,74.29
2023-01-13T01:25:33.227Z,74.23
2023-01-13T01:26:34.933Z,74.20
2023-01-13T01:27:36.768Z,74.28
2023-01-13T01:28:38.829Z,74.29
2023-01-13T01:29:40.392Z,74.26
2023-01-13T01:30:42.085Z,74.29
2023-01-13T01:31:43.978Z,74.32
2023-01-13T01:32:45.900Z,74.34
2023-01-13T01:33:48.293Z,74.33
2023-01-13T01:34:50.557Z,74.34
2023-01-13T01:35:53.703Z,74.40
2023-01-13T01:36:55.250Z,74.43
2023-01-13T01:37:57.107Z,74.44
2023-01-13T01:38:59.303Z,74.37
2023-01-13T01:40:01.012Z,74.37
2023-01-13T01:41:02.945Z,74.33
2023-01-13T01:42:23.604Z,74.28
2023-01-13T01:44:03.732Z,74.28
2023-01-13T01:45:19.994Z,74.31
2023-01-13T01:46:21.645Z,74.32
2023-01-13T01:47:25.658Z,74.35
2023-01-13T01:48:34.615Z,74.30
2023-01-13T01:49:38.287Z,74.23
2023-01-13T01:50:40.283Z,74.22
2023-01-13T01:51:46.052Z,74.24
2023-01-13T01:53:01.988Z,74.20
2023-01-13T01:54:08.913Z,74.26
2023-01-13T01:55:17.955Z,74.24
2023-01-13T01:56:20.382Z,74.16
2023-01-13T01:57:45.273Z,74.15
2023-01-13T01:58:50.505Z,74.18
2023-01-13T01:59:52.974Z,74.12
2023-01-13T02:00:54.685Z,74.05
2023-01-13T02:01:56.540Z,74.05
2023-01-13T02:02:59.280Z,74.05
2023-01-13T02:04:09.324Z,74.03
2023-01-13T02:05:11.310Z,73.98
2023-01-13T02:06:14.172Z,73.91
2023-01-13T02:07:19.717Z,73.98
2023-01-13T02:08:22.007Z,74.01
2023-01-13T02:09:27.001Z,74.00
2023-01-13T02:10:30.076Z,74.00
2023-01-13T02:11:52.889Z,74.01
2023-01-13T02:12:58.997Z,74.02
2023-01-13T02:14:00.759Z,74.06
2023-01-13T02:15:11.660Z,74.09
2023-01-13T02:16:21.913Z,74.11
2023-01-13T02:17:35.525Z,74.14
2023-01-13T02:18:52.748Z,74.10
2023-01-13T02:20:32.240Z,74.25
2023-01-13T02:22:00.067Z,74.28
2023-01-13T02:23:07.528Z,74.27
2023-01-13T02:24:54.174Z,74.21
2023-01-13T02:26:20.955Z,74.35
2023-01-13T02:27:33.889Z,74.23
2023-01-13T02:29:14.422Z,74.47
2023-01-13T02:32:04.305Z,74.67
2023-01-13T02:33:24.709Z,74.63
2023-01-13T02:34:48.600Z,74.63
2023-01-13T02:35:59.141Z,74.73
2023-01-13T02:37:11.602Z,74.62
2023-01-13T02:38:15.948Z,74.89
2023-01-13T02:39:34.780Z,74.86
2023-01-13T02:40:48.697Z,75.06
2023-01-13T02:42:25.580Z,75.03
2023-01-13T02:43:56.499Z,75.08
2023-01-13T02:45:02.439Z,75.37
2023-01-13T02:46:25.643Z,75.47
2023-01-13T02:47:31.953Z,75.48
2023-01-13T02:48:37.517Z,75.54
2023-01-13T02:49:47.791Z,75.62
2023-01-13T02:51:02.506Z,75.64
2023-01-13T02:52:13.350Z,75.86
2023-01-13T02:53:26.011Z,75.68
2023-01-13T02:54:29.746Z,75.80
2023-01-13T02:55:46.651Z,75.88
2023-01-13T02:56:50.627Z,76.10
2023-01-13T02:57:54.032Z,76.24
2023-01-13T02:58:58.156Z,76.23
2023-01-13T03:00:02.246Z,76.31
2023-01-13T03:01:04.332Z,76.39
2023-01-13T03:02:08.731Z,76.41
2023-01-13T03:03:10.501Z,76.52
2023-01-13T03:04:35.347Z,76.42
2023-01-13T03:05:37.697Z,76.72
2023-01-13T03:07:01.480Z,76.57
2023-01-13T03:08:38.907Z,76.64
2023-01-13T03:09:50.494Z,76.99
2023-01-13T03:11:04.193Z,77.01
2023-01-13T03:12:30.314Z,77.06
2023-01-13T03:13:45.359Z,77.10
2023-01-13T03:14:49.655Z,77.16
2023-01-13T03:15:54.206Z,77.20
2023-01-13T03:17:11.595Z,77.16
2023-01-13T03:18:39.227Z,77.25
2023-01-13T03:19:54.871Z,77.50
2023-01-13T03:21:14.568Z,77.54
2023-01-13T03:22:43.245Z,77.43
2023-01-13T03:24:09.302Z,77.57
2023-01-13T03:25:31.949Z,77.70
2023-01-13T03:26:39.658Z,77.70
2023-01-13T03:27:47.379Z,77.68
2023-01-13T03:28:55.252Z,77.60
2023-01-13T03:30:03.607Z,77.76
2023-01-13T03:31:11.144Z,77.68
2023-01-13T03:32:34.795Z,77.79
2023-01-13T03:33:53.090Z,77.89
2023-01-13T03:35:00.202Z,77.81
2023-01-13T03:36:07.371Z,77.90
2023-01-13T03:37:10.421Z,78.02
2023-01-13T03:38:17.668Z,77.83
2023-01-13T03:39:25.654Z,77.98
2023-01-13T03:40:32.421Z,77.80
2023-01-13T03:41:59.216Z,77.98
2023-01-13T03:43:26.874Z,78.19
2023-01-13T03:44:33.328Z,78.10
2023-01-13T03:45:38.691Z,78.19
2023-01-13T03:47:21.570Z,78.20
2023-01-13T03:48:27.114Z,78.46
2023-01-13T03:49:59.270Z,78.17
2023-01-13T03:51:06.395Z,78.55
2023-01-13T03:52:12.968Z,78.41
2023-01-13T03:53:32.635Z,78.42
2023-01-13T03:54:44.299Z,78.51
2023-01-13T03:55:57.153Z,78.49
2023-01-13T03:57:04.134Z,78.64
2023-01-13T03:58:10.347Z,78.54
2023-01-13T03:59:18.048Z,78.63
2023-01-13T04:00:25.486Z,78.64
2023-01-13T04:01:34.818Z,78.76
2023-01-13T04:02:58.191Z,78.69
2023-01-13T04:04:04.845Z,78.73
2023-01-13T04:05:09.244Z,78.74
2023-01-13T04:06:21.268Z,78.67
2023-01-13T04:07:41.460Z,79.00
2023-01-13T04:08:55.177Z,79.05
2023-01-13T04:10:01.997Z,79.10
2023-01-13T04:11:12.731Z,79.02
2023-01-13T04:12:56.498Z,78.86
2023-01-13T04:14:01.143Z,79.19
2023-01-13T04:15:03.021Z,78.84
2023-01-13T04:16:07.253Z,79.06
2023-01-13T04:17:08.945Z,79.07
2023-01-13T04:18:14.198Z,78.94
2023-01-13T04:19:16.176Z,79.15
2023-01-13T04:20:17.851Z,79.14
2023-01-13T04:21:19.498Z,79.21
2023-01-13T04:22:21.098Z,79.10
2023-01-13T04:23:23.535Z,79.19
2023-01-13T04:24:25.149Z,79.25
2023-01-13T04:25:26.653Z,79.12
2023-01-13T04:26:28.312Z,79.07
2023-01-13T04:27:29.995Z,79.19
2023-01-13T04:28:32.890Z,79.22
2023-01-13T04:29:34.607Z,79.16
2023-01-13T04:30:37.397Z,79.08
2023-01-13T04:31:39.095Z,79.01
2023-01-13T04:32:40.767Z,79.11
2023-01-13T04:33:42.327Z,79.29
2023-01-13T04:34:44.122Z,79.34
2023-01-13T04:35:46.878Z,79.33
2023-01-13T04:36:48.562Z,79.41
2023-01-13T04:37:50.252Z,79.47
2023-01-13T04:38:51.835Z,79.52
2023-01-13T04:39:53.426Z,79.30
2023-01-13T04:40:55.073Z,79.49
2023-01-13T04:42:00.497Z,79.55
2023-01-13T04:43:02.667Z,79.52
2023-01-13T04:44:04.416Z,79.39
2023-01-13T04:45:06.813Z,79.39
2023-01-13T04:46:08.539Z,79.51
2023-01-13T04:47:10.240Z,79.58
2023-01-13T04:48:12.006Z,79.53
2023-01-13T04:49:13.975Z,79.49
2023-01-13T04:50:18.905Z,79.51
2023-01-13T04:51:20.625Z,79.58
2023-01-13T04:52:22.361Z,79.53
2023-01-13T04:53:23.897Z,79.51
2023-01-13T04:54:25.587Z,79.52
2023-01-13T04:55:27.538Z,79.57
2023-01-13T04:56:29.276Z,79.54
2023-01-13T04:57:32.712Z,79.56
2023-01-13T04:58:34.412Z,79.56
2023-01-13T04:59:36.026Z,79.66
2023-01-13T05:00:37.843Z,79.63
2023-01-13T05:01:40.114Z,79.66
2023-01-13T05:02:41.881Z,79.52
2023-01-13T05:03:43.980Z,79.59
2023-01-13T05:04:47.220Z,79.59
2023-01-13T05:05:51.491Z,79.50
2023-01-13T05:06:53.138Z,79.39
2023-01-13T05:07:54.854Z,79.45
2023-01-13T05:08:56.837Z,79.70
2023-01-13T05:09:58.833Z,79.73
2023-01-13T05:11:00.674Z,79.81
2023-01-13T05:12:21.112Z,79.77
2023-01-13T05:13:40.871Z,79.84
2023-01-13T05:15:00.822Z,79.90
2023-01-13T05:16:21.489Z,79.89
2023-01-13T05:17:24.752Z,79.94
2023-01-13T05:18:28.445Z,79.82
2023-01-13T05:19:33.215Z,79.66
2023-01-13T05:20:34.976Z,79.68
2023-01-13T05:21:55.240Z,79.77
2023-01-13T05:23:15.593Z,79.90
2023-01-13T05:24:46.499Z,79.89
2023-01-13T05:25:48.483Z,79.92
2023-01-13T05:26:50.277Z,79.75
2023-01-13T05:27:57.101Z,79.89
2023-01-13T05:28:58.630Z,80.03
2023-01-13T05:30:00.519Z,80.01
2023-01-13T05:31:02.152Z,80.04
2023-01-13T05:32:07.080Z,80.07
2023-01-13T05:33:10.565Z,79.82
2023-01-13T05:34:12.179Z,79.95
2023-01-13T05:35:15.353Z,79.93
2023-01-13T05:36:17.792Z,79.98
2023-01-13T05:37:19.683Z,79.86
2023-01-13T05:38:21.258Z,79.82
2023-01-13T05:39:22.871Z,79.88
2023-01-13T05:40:42.750Z,79.71
2023-01-13T05:42:02.981Z,79.90
2023-01-13T05:43:19.169Z,79.89
2023-01-13T05:44:20.737Z,79.74
2023-01-13T05:45:23.105Z,79.88
2023-01-13T05:46:24.806Z,79.91
2023-01-13T05:47:26.437Z,79.84
2023-01-13T05:48:40.416Z,79.78
2023-01-13T05:49:42.311Z,79.78
2023-01-13T05:50:44.606Z,79.76
2023-01-13T05:51:46.151Z,79.68
2023-01-13T05:52:48.114Z,79.62
2023-01-13T05:53:49.865Z,79.56
2023-01-13T05:54:51.538Z,79.57
2023-01-13T05:55:54.149Z,79.58
2023-01-13T05:56:55.829Z,79.56
2023-01-13T05:57:57.689Z,79.56
2023-01-13T05:58:59.476Z,79.52
2023-01-13T06:00:01.472Z,79.51
2023-01-13T06:01:13.370Z,79.44
2023-01-13T06:02:14.983Z,79.48
2023-01-13T06:03:19.392Z,79.37
2023-01-13T06:04:21.300Z,79.35
2023-01-13T06:05:23.040Z,79.30
2023-01-13T06:06:24.693Z,79.22
2023-01-13T06:07:26.339Z,79.19
2023-01-13T06:08:28.478Z,79.15
2023-01-13T06:09:30.305Z,79.10
2023-01-13T06:10:32.885Z,79.05
2023-01-13T06:11:34.461Z,78.92
2023-01-13T06:12:36.507Z,78.91
2023-01-13T06:13:38.103Z,78.84
2023-01-13T06:14:40.110Z,78.75
2023-01-13T06:15:41.904Z,78.79
2023-01-13T06:16:44.916Z,78.64
2023-01-13T06:17:47.009Z,78.70
2023-01-13T06:18:48.772Z,78.58
2023-01-13T06:19:50.676Z,78.56
2023-01-13T06:20:52.274Z,78.39
2023-01-13T06:21:57.109Z,78.37
2023-01-13T06:23:00.302Z,78.35
2023-01-13T06:24:02.062Z,78.38
2023-01-13T06:25:04.662Z,78.26
2023-01-13T06:26:24.335Z,78.25
2023-01-13T06:27:26.147Z,78.21
2023-01-13T06:28:27.750Z,78.14
2023-01-13T06:29:29.941Z,77.94
2023-01-13T06:30:38.103Z,77.81
2023-01-13T06:31:39.907Z,77.87
2023-01-13T06:32:46.620Z,77.84
2023-01-13T06:33:52.007Z,77.83
2023-01-13T06:35:00.136Z,77.68
2023-01-13T06:36:06.938Z,77.69
2023-01-13T06:37:11.985Z,77.73
2023-01-13T06:38:17.810Z,77.62
2023-01-13T06:39:23.929Z,77.58
2023-01-13T06:40:25.864Z,77.51
2023-01-13T06:41:50.309Z,77.35
2023-01-13T06:43:15.809Z,77.24
2023-01-13T06:44:19.894Z,77.33
2023-01-13T06:45:24.528Z,77.42
2023-01-13T06:46:26.123Z,77.36
2023-01-13T06:47:27.995Z,77.31
2023-01-13T06:48:34.351Z,77.21
2023-01-13T06:49:36.106Z,77.20
2023-01-13T06:50:37.765Z,77.25
2023-01-13T06:51:39.555Z,77.28
2023-01-13T06:52:41.353Z,77.19
2023-01-13T06:53:43.037Z,77.22
2023-01-13T06:54:44.633Z,77.11
2023-01-13T06:55:46.614Z,77.13
2023-01-13T06:56:51.552Z,77.14
2023-01-13T06:57:56.786Z,77.16
2023-01-13T06:58:58.923Z,77.12
2023-01-13T07:00:00.666Z,77.06
2023-01-13T07:01:02.484Z,77.08
2023-01-13T07:02:04.643Z,77.04
2023-01-13T07:03:12.220Z,76.98
2023-01-13T07:04:14.095Z,77.05
2023-01-13T07:05:17.300Z,77.11
2023-01-13T07:06:19.080Z,77.11
2023-01-13T07:07:20.742Z,77.15
2023-01-13T07:08:23.959Z,77.15
2023-01-13T07:09:25.719Z,77.18
2023-01-13T07:10:27.488Z,77.20
2023-01-13T07:11:29.021Z,77.24
2023-01-13T07:12:30.615Z,77.21
2023-01-13T07:13:52.730Z,77.18
2023-01-13T07:15:12.985Z,77.27
2023-01-13T07:16:14.595Z,77.21
2023-01-13T07:17:24.327Z,77.33
2023-01-13T07:18:27.831Z,77.36
2023-01-13T07:19:29.620Z,77.38
2023-01-13T07:20:31.494Z,77.40
2023-01-13T07:21:33.146Z,77.43
2023-01-13T07:22:34.674Z,77.41
2023-01-13T07:23:39.233Z,77.40
2023-01-13T07:24:41.139Z,77.49
2023-01-13T07:25:42.794Z,77.54
2023-01-13T07:26:47.797Z,77.53
2023-01-13T07:27:49.518Z,77.67
2023-01-13T07:28:51.141Z,77.68
2023-01-13T07:29:52.951Z,77.70
2023-01-13T07:30:54.753Z,77.80
2023-01-13T07:31:56.511Z,77.78
2023-01-13T07:32:58.071Z,77.84
2023-01-13T07:34:00.282Z,77.83
2023-01-13T07:35:04.897Z,78.00
2023-01-13T07:36:07.357Z,78.00
2023-01-13T07:37:08.965Z,78.10
2023-01-13T07:38:10.676Z,78.28
2023-01-13T07:39:12.325Z,78.32
2023-01-13T07:40:14.806Z,78.32
2023-01-13T07:41:34.746Z,78.44
2023-01-13T07:42:56.151Z,78.57
2023-01-13T07:43:57.822Z,78.67
2023-01-13T07:44:59.326Z,78.74
2023-01-13T07:46:04.018Z,78.83
2023-01-13T07:47:07.895Z,78.85
2023-01-13T07:48:09.642Z,78.88
2023-01-13T07:49:12.435Z,78.96
2023-01-13T07:50:14.014Z,79.01
2023-01-13T07:51:15.958Z,78.94
2023-01-13T07:52:17.756Z,79.05
2023-01-13T07:53:19.662Z,79.18
2023-01-13T07:54:35.076Z,79.16
2023-01-13T07:55:42.855Z,79.28
2023-01-13T07:56:44.762Z,79.43
2023-01-13T07:57:47.738Z,79.33
2023-01-13T07:58:52.646Z,79.33
2023-01-13T07:59:54.459Z,79.32
2023-01-13T08:00:57.233Z,79.31
2023-01-13T08:01:59.823Z,79.24
2023-01-13T08:03:01.689Z,79.36
2023-01-13T08:04:03.639Z,79.46
2023-01-13T08:05:05.834Z,79.40
2023-01-13T08:06:09.122Z,79.35
2023-01-13T08:07:11.226Z,79.43
2023-01-13T08:08:13.183Z,79.51
2023-01-13T08:09:14.895Z,79.50
2023-01-13T08:10:16.812Z,79.52
2023-01-13T08:11:18.563Z,79.48
2023-01-13T08:12:38.835Z,79.53
2023-01-13T08:13:40.524Z,79.63
2023-01-13T08:14:42.794Z,79.60
2023-01-13T08:15:45.605Z,79.59
2023-01-13T08:16:47.361Z,79.56
2023-01-13T08:17:49.143Z,79.55
2023-01-13T08:18:50.872Z,79.44
2023-01-13T08:19:52.421Z,79.39
2023-01-13T08:20:54.306Z,79.19
2023-01-13T08:21:56.631Z,79.32
2023-01-13T08:23:00.101Z,79.32
2023-01-13T08:24:01.797Z,79.26
2023-01-13T08:25:04.130Z,79.19
2023-01-13T08:26:14.442Z,79.11
2023-01-13T08:27:16.194Z,79.02
2023-01-13T08:28:17.941Z,78.95
2023-01-13T08:29:19.677Z,78.88
2023-01-13T08:30:21.669Z,78.78
2023-01-13T08:31:23.336Z,78.67
2023-01-13T08:32:25.128Z,78.63
2023-01-13T08:33:28.116Z,78.58
2023-01-13T08:34:29.656Z,78.51
2023-01-13T08:35:31.298Z,78.46
2023-01-13T08:36:32.863Z,78.45
2023-01-13T08:37:34.785Z,78.43
2023-01-13T08:38:37.343Z,78.39
2023-01-13T08:39:38.907Z,78.25
2023-01-13T08:40:40.487Z,78.29
2023-01-13T08:41:55.033Z,78.16
2023-01-13T08:42:57.587Z,78.21
2023-01-13T08:43:59.583Z,78.10
2023-01-13T08:45:01.392Z,78.07
2023-01-13T08:46:05.935Z,77.99
2023-01-13T08:47:07.627Z,77.89
2023-01-13T08:48:09.291Z,77.74
2023-01-13T08:49:11.015Z,77.64
2023-01-13T08:50:13.098Z,77.48
2023-01-13T08:51:14.684Z,77.56
2023-01-13T08:52:16.387Z,77.36
2023-01-13T08:53:18.833Z,77.42
2023-01-13T08:54:20.766Z,77.22
2023-01-13T08:55:22.322Z,77.31
2023-01-13T08:56:24.101Z,77.13
2023-01-13T08:57:26.087Z,77.06
2023-01-13T08:58:27.866Z,77.16
2023-01-13T08:59:29.723Z,76.95
2023-01-13T09:00:31.357Z,76.77
2023-01-13T09:01:33.307Z,76.76
2023-01-13T09:02:35.056Z,76.93
2023-01-13T09:03:38.372Z,76.81
2023-01-13T09:04:40.294Z,76.57
2023-01-13T09:05:42.128Z,76.66
2023-01-13T09:06:44.270Z,76.62
2023-01-13T09:07:46.054Z,76.72
2023-01-13T09:08:47.649Z,76.53
2023-01-13T09:09:49.299Z,76.51
2023-01-13T09:10:51.183Z,76.42
2023-01-13T09:12:11.815Z,76.13
2023-01-13T09:13:13.586Z,75.86
2023-01-13T09:14:23.415Z,76.10
2023-01-13T09:15:25.216Z,75.94
2023-01-13T09:16:26.925Z,75.99
2023-01-13T09:17:28.439Z,75.93
2023-01-13T09:18:30.076Z,75.99
2023-01-13T09:19:32.041Z,75.90
2023-01-13T09:20:33.797Z,75.75
2023-01-13T09:21:35.453Z,75.82
2023-01-13T09:22:37.045Z,75.83
2023-01-13T09:23:38.602Z,75.97
2023-01-13T09:24:40.327Z,75.87
2023-01-13T09:25:42.038Z,75.72
2023-01-13T09:26:44.614Z,75.89
2023-01-13T09:27:46.341Z,75.85
2023-01-13T09:28:48.062Z,75.70
2023-01-13T09:29:49.836Z,75.37
2023-01-13T09:30:51.607Z,75.58
2023-01-13T09:31:53.417Z,75.51
2023-01-13T09:33:17.392Z,75.50
2023-01-13T09:34:39.145Z,75.50
2023-01-13T09:35:40.830Z,75.60
2023-01-13T09:36:42.603Z,75.52
2023-01-13T09:37:44.484Z,75.34
2023-01-13T09:38:46.050Z,75.44
2023-01-13T09:39:47.761Z,75.27
2023-01-13T09:40:49.363Z,75.24
2023-01-13T09:42:13.242Z,75.13
2023-01-13T09:43:41.225Z,75.28
2023-01-13T09:44:55.027Z,75.36
2023-01-13T09:46:03.541Z,75.31
2023-01-13T09:47:18.674Z,75.39
2023-01-13T09:48:27.637Z,75.38
2023-01-13T09:49:33.530Z,75.40
2023-01-13T09:50:47.673Z,75.52
2023-01-13T09:51:58.409Z,75.47
2023-01-13T09:53:00.451Z,75.51
2023-01-13T09:54:10.787Z,75.40
2023-01-13T09:55:19.190Z,75.44
2023-01-13T09:56:22.300Z,75.46
2023-01-13T09:57:27.747Z,75.36
2023-01-13T09:58:29.524Z,75.33
2023-01-13T09:59:35.616Z,75.47
2023-01-13T10:01:15.879Z,75.46
2023-01-13T10:02:55.598Z,75.45
2023-01-13T10:04:03.439Z,75.25
2023-01-13T10:05:09.864Z,74.97
2023-01-13T10:06:23.339Z,75.03
2023-01-13T10:07:29.876Z,74.91
2023-01-13T10:08:36.673Z,74.88
2023-01-13T10:09:44.534Z,74.78
2023-01-13T10:10:49.327Z,74.86
2023-01-13T10:12:12.356Z,74.76
2023-01-13T10:13:19.395Z,74.67
2023-01-13T10:14:33.972Z,74.79
2023-01-13T10:15:35.791Z,74.48
2023-01-13T10:17:02.154Z,74.51
2023-01-13T10:18:18.269Z,74.29
2023-01-13T10:19:30.297Z,74.51
2023-01-13T10:20:39.846Z,74.54
2023-01-13T10:21:56.908Z,74.48
2023-01-13T10:23:37.222Z,74.20
2023-01-13T10:25:06.628Z,73.98
2023-01-13T10:26:11.171Z,73.74
2023-01-13T10:27:31.711Z,73.90
2023-01-13T10:28:33.305Z,73.38
2023-01-13T10:29:35.890Z,73.18
2023-01-13T10:30:47.124Z,73.31
2023-01-13T10:31:48.763Z,73.18
2023-01-13T10:32:56.607Z,73.29
2023-01-13T10:34:00.296Z,73.21
2023-01-13T10:35:01.900Z,72.80
2023-01-13T10:36:13.759Z,72.40
2023-01-13T10:37:25.667Z,72.56
2023-01-13T10:38:37.029Z,72.39
2023-01-13T10:39:45.018Z,72.56
2023-01-13T10:40:54.588Z,72.28
2023-01-13T10:42:04.296Z,72.56
2023-01-13T10:43:05.954Z,72.79
2023-01-13T10:44:18.005Z,72.86
2023-01-13T10:45:25.036Z,72.57
2023-01-13T10:46:28.389Z,72.11
2023-01-13T10:47:32.748Z,72.11
2023-01-13T10:48:43.541Z,71.57
2023-01-13T10:50:18.433Z,71.86
2023-01-13T10:51:26.587Z,71.83
2023-01-13T10:52:30.852Z,71.99
2023-01-13T10:53:32.718Z,72.03
2023-01-13T10:54:35.589Z,72.19
2023-01-13T10:55:37.456Z,71.83
2023-01-13T10:56:44.656Z,71.99
2023-01-13T10:57:46.860Z,70.82
2023-01-13T10:58:49.216Z,71.13
2023-01-13T10:59:52.372Z,70.66
2023-01-13T11:01:04.304Z,70.98
2023-01-13T11:02:23.811Z,70.45
2023-01-13T11:03:46.376Z,70.84
2023-01-13T11:04:53.711Z,70.10
2023-01-13T11:05:58.083Z,70.36
2023-01-13T11:07:01.355Z,70.38
2023-01-13T11:08:04.299Z,69.84
2023-01-13T11:09:19.556Z,70.08
2023-01-13T11:10:30.724Z,68.57
2023-01-13T11:11:41.281Z,69.20
2023-01-13T11:12:56.722Z,69.06
2023-01-13T11:14:22.654Z,69.04
2023-01-13T11:16:19.782Z,69.32
2023-01-13T11:17:45.982Z,68.33
2023-01-13T11:19:11.122Z,68.02
2023-01-13T11:20:31.900Z,68.44
2023-01-13T11:22:01.260Z,67.89
2023-01-13T11:23:12.980Z,68.57
2023-01-13T11:24:36.602Z,67.98
2023-01-13T11:25:43.091Z,68.01
2023-01-13T11:26:55.341Z,67.94
2023-01-13T11:28:14.535Z,68.14
2023-01-13T11:29:45.642Z,68.02
2023-01-13T11:31:09.913Z,67.53
2023-01-13T11:32:19.423Z,67.78
2023-01-13T11:33:46.635Z,67.77
2023-01-13T11:34:53.863Z,67.74
2023-01-13T11:35:55.486Z,68.12
2023-01-13T11:37:00.460Z,68.42
2023-01-13T11:38:27.927Z,68.37
2023-01-13T11:39:43.663Z,68.28
2023-01-13T11:40:48.680Z,67.83
2023-01-13T11:42:17.625Z,68.14
2023-01-13T11:43:42.442Z,68.07
2023-01-13T11:45:12.080Z,67.64
2023-01-13T11:46:13.915Z,67.94
2023-01-13T11:47:18.902Z,67.27
2023-01-13T11:48:26.315Z,67.04
2023-01-13T11:49:32.477Z,66.91
2023-01-13T11:50:41.840Z,66.64
2023-01-13T11:51:54.766Z,66.64
2023-01-13T11:53:14.410Z,66.51
2023-01-13T11:54:32.362Z,66.58
2023-01-13T11:55:57.961Z,66.91
2023-01-13T11:57:12.594Z,67.12
2023-01-13T11:58:41.976Z,66.84
2023-01-13T12:00:01.975Z,66.62
2023-01-13T12:01:33.006Z,66.44
2023-01-13T12:03:08.169Z,66.97
2023-01-13T12:04:35.147Z,66.34
2023-01-13T12:05:40.272Z,65.86
2023-01-13T12:06:43.775Z,66.31
2023-01-13T12:08:17.985Z,66.27
2023-01-13T12:09:28.814Z,66.62
2023-01-13T12:10:56.471Z,66.42
2023-01-13T12:12:21.484Z,66.30
2023-01-13T12:13:38.181Z,65.36
2023-01-13T12:15:13.560Z,64.55
2023-01-13T12:16:28.243Z,64.78
2023-01-13T12:17:48.168Z,64.84
2023-01-13T12:18:59.309Z,64.73
2023-01-13T12:20:32.483Z,64.90
2023-01-13T12:21:40.310Z,64.92
2023-01-13T12:22:46.013Z,64.46
2023-01-13T12:24:06.014Z,64.69
2023-01-13T12:25:16.609Z,64.87
2023-01-13T12:26:18.121Z,64.81
2023-01-13T12:27:40.100Z,65.12
2023-01-13T12:28:50.601Z,65.55
2023-01-13T12:29:56.423Z,65.89
2023-01-13T12:31:02.471Z,65.96
2023-01-13T12:32:14.087Z,65.53
2023-01-13T12:33:48.847Z,66.01
2023-01-13T12:35:15.066Z,65.77
2023-01-13T12:36:38.204Z,65.94
2023-01-13T12:38:05.903Z,65.58
2023-01-13T12:39:36.501Z,65.44
2023-01-13T12:41:23.891Z,65.73
2023-01-13T12:42:54.692Z,65.35
2023-01-13T12:44:15.340Z,65.57
2023-01-13T12:45:26.616Z,65.13
2023-01-13T12:46:28.347Z,65.68
2023-01-13T12:47:36.928Z,65.45
2023-01-13T12:49:01.732Z,65.71
2023-01-13T12:50:21.329Z,65.83
2023-01-13T12:51:27.273Z,65.84
2023-01-13T12:52:43.001Z,65.72
2023-01-13T12:53:44.623Z,65.86
2023-01-13T12:54:46.260Z,65.63
2023-01-13T12:55:51.555Z,65.40
2023-01-13T12:56:54.085Z,65.39
2023-01-13T12:58:01.793Z,65.66
2023-01-13T12:59:19.104Z,65.83
2023-01-13T13:00:20.804Z,65.71
2023-01-13T13:01:35.256Z,65.55
2023-01-13T13:02:42.108Z,65.71
2023-01-13T13:04:08.621Z,65.28
2023-01-13T13:05:56.766Z,65.34
2023-01-13T13:07:12.045Z,65.40
2023-01-13T13:08:40.438Z,65.68
2023-01-13T13:09:52.522Z,65.79
2023-01-13T13:11:02.081Z,65.59
2023-01-13T13:12:50.339Z,65.52
2023-01-13T13:13:52.010Z,65.69
2023-01-13T13:14:53.544Z,65.80
2023-01-13T13:16:28.467Z,65.89
2023-01-13T13:17:30.951Z,66.09
2023-01-13T13:18:32.814Z,66.15
2023-01-13T13:19:34.345Z,66.20
2023-01-13T13:21:11.513Z,66.28
2023-01-13T13:22:13.533Z,66.40
2023-01-13T13:23:38.640Z,66.57
2023-01-13T13:24:42.560Z,66.79
2023-01-13T13:26:00.636Z,66.90
2023-01-13T13:27:17.880Z,67.18
2023-01-13T13:28:22.557Z,67.27
2023-01-13T13:29:48.108Z,67.39
2023-01-13T13:31:05.109Z,67.50
2023-01-13T13:32:49.942Z,67.63
2023-01-13T13:34:12.341Z,67.76
2023-01-13T13:35:39.671Z,67.75
2023-01-13T13:37:19.742Z,67.87
2023-01-13T13:39:17.504Z,68.11
2023-01-13T13:40:38.417Z,68.65
2023-01-13T13:42:02.861Z,68.80
2023-01-13T13:43:32.904Z,69.30
2023-01-13T13:45:00.258Z,69.41
2023-01-13T13:46:20.669Z,69.58
2023-01-13T13:47:22.391Z,69.46
2023-01-13T13:48:30.208Z,69.32
2023-01-13T13:49:40.752Z,69.80
2023-01-13T13:50:48.370Z,69.86
2023-01-13T13:52:26.095Z,70.00
2023-01-13T13:53:31.440Z,70.33
2023-01-13T13:54:33.080Z,70.10
2023-01-13T13:55:36.342Z,70.49
2023-01-13T13:56:43.772Z,70.69
2023-01-13T13:57:49.090Z,70.91
2023-01-13T13:58:51.919Z,70.79
2023-01-13T13:59:55.637Z,71.32
2023-01-13T14:00:57.777Z,71.81
2023-01-13T14:02:01.340Z,71.76
2023-01-13T14:03:15.317Z,72.27
2023-01-13T14:04:24.976Z,71.78
2023-01-13T14:05:35.309Z,72.64
2023-01-13T14:06:36.871Z,72.88
2023-01-13T14:07:44.337Z,73.02
2023-01-13T14:08:49.490Z,73.17
2023-01-13T14:09:53.750Z,73.43
2023-01-13T14:10:55.762Z,73.58
2023-01-13T14:12:00.603Z,73.62
2023-01-13T14:13:14.084Z,73.94
2023-01-13T14:14:20.348Z,73.66
2023-01-13T14:15:32.487Z,73.91
2023-01-13T14:16:37.399Z,73.95
2023-01-13T14:17:38.930Z,74.13
2023-01-13T14:18:49.032Z,74.04
2023-01-13T14:19:59.939Z,74.35
2023-01-13T14:21:16.226Z,75.42
2023-01-13T14:22:17.910Z,75.22
2023-01-13T14:23:27.730Z,74.82
2023-01-13T14:24:30.759Z,74.78
2023-01-13T14:25:37.636Z,74.94
2023-01-13T14:26:39.569Z,74.62
2023-01-13T14:27:42.541Z,74.38
2023-01-13T14:28:44.389Z,74.59
2023-01-13T14:29:46.337Z,74.58
2023-01-13T14:30:50.305Z,74.50
2023-01-13T14:31:53.999Z,74.48
2023-01-13T14:32:56.359Z,74.56
2023-01-13T14:34:02.213Z,74.68
2023-01-13T14:35:07.462Z,74.65
2023-01-13T14:36:15.127Z,74.57
2023-01-13T14:37:32.056Z,74.51
2023-01-13T14:38:33.797Z,74.26
2023-01-13T14:39:39.624Z,74.14
2023-01-13T14:40:44.969Z,74.12
2023-01-13T14:41:48.908Z,73.84